sensor_id;sensor_type;location;lat;lon;timestamp;pressure;altitude;pressure_sealevel;temperature;humidity
63281;BME280;49406;51.044;3.766;2023-07-22T00:00:38;101533.80;;;16.08;91.73
63281;BME280;49406;51.044;3.766;2023-07-22T00:03:13;101529.60;;;16.03;92.25
63281;BME280;49406;51.044;3.766;2023-07-22T00:05:47;101531.92;;;15.99;92.48
63281;BME280;49406;51.044;3.766;2023-07-22T00:08:20;101535.98;;;15.97;92.96
63281;BME280;49406;51.044;3.766;2023-07-22T00:10:56;101536.33;;;15.95;93.72
63281;BME280;49406;51.044;3.766;2023-07-22T00:13:31;101533.13;;;16.03;93.48
63281;BME280;49406;51.044;3.766;2023-07-22T00:16:06;101529.42;;;16.05;93.22
63281;BME280;49406;51.044;3.766;2023-07-22T00:18:41;101527.84;;;16.02;93.42
63281;BME280;49406;51.044;3.766;2023-07-22T00:21:15;101526.61;;;16.02;94.28
63281;BME280;49406;51.044;3.766;2023-07-22T00:23:50;101523.10;;;15.98;94.99
63281;BME280;49406;51.044;3.766;2023-07-22T00:26:23;101520.63;;;15.96;95.24
63281;BME280;49406;51.044;3.766;2023-07-22T00:28:58;101515.67;;;15.94;95.50
63281;BME280;49406;51.044;3.766;2023-07-22T00:31:32;101520.98;;;15.91;96.19
63281;BME280;49406;51.044;3.766;2023-07-22T00:34:07;101520.80;;;15.91;96.16
63281;BME280;49406;51.044;3.766;2023-07-22T00:36:42;101515.89;;;15.88;96.24
63281;BME280;49406;51.044;3.766;2023-07-22T00:39:17;101520.27;;;15.96;96.20
63281;BME280;49406;51.044;3.766;2023-07-22T00:41:52;101516.05;;;15.97;96.31
63281;BME280;49406;51.044;3.766;2023-07-22T00:44:27;101516.40;;;15.98;96.09
63281;BME280;49406;51.044;3.766;2023-07-22T00:47:03;101519.57;;;15.98;96.53
63281;BME280;49406;51.044;3.766;2023-07-22T00:49:38;101514.98;;;15.91;97.26
63281;BME280;49406;51.044;3.766;2023-07-22T00:52:13;101517.13;;;15.88;97.29
63281;BME280;49406;51.044;3.766;2023-07-22T00:54:47;101513.08;;;15.84;97.82
63281;BME280;49406;51.044;3.766;2023-07-22T00:57:22;101518.20;;;15.83;98.18
63281;BME280;49406;51.044;3.766;2023-07-22T00:59:57;101513.25;;;15.87;98.09
63281;BME280;49406;51.044;3.766;2023-07-22T01:02:30;101510.06;;;15.89;98.43
63281;BME280;49406;51.044;3.766;2023-07-22T01:05:05;101512.88;;;15.89;98.63
63281;BME280;49406;51.044;3.766;2023-07-22T01:07:40;101506.92;;;15.82;99.57
63281;BME280;49406;51.044;3.766;2023-07-22T01:10:16;101506.93;;;15.79;99.22
63281;BME280;49406;51.044;3.766;2023-07-22T01:12:50;101505.34;;;15.75;99.53
63281;BME280;49406;51.044;3.766;2023-07-22T01:15:25;101503.40;;;15.76;99.67
63281;BME280;49406;51.044;3.766;2023-07-22T01:18:01;101497.94;;;15.78;99.74
63281;BME280;49406;51.044;3.766;2023-07-22T01:20:36;101498.47;;;15.74;100.00
63281;BME280;49406;51.044;3.766;2023-07-22T01:23:12;101498.33;;;15.65;100.00
63281;BME280;49406;51.044;3.766;2023-07-22T01:25:47;101489.85;;;15.59;100.00
63281;BME280;49406;51.044;3.766;2023-07-22T01:28:23;101486.16;;;15.51;100.00
63281;BME280;49406;51.044;3.766;2023-07-22T01:30:58;101485.27;;;15.54;100.00
63281;BME280;49406;51.044;3.766;2023-07-22T01:33:32;101482.63;;;15.52;100.00
63281;BME280;49406;51.044;3.766;2023-07-22T01:36:07;101480.36;;;15.48;100.00
63281;BME280;49406;51.044;3.766;2023-07-22T01:38:42;101478.05;;;15.42;100.00
63281;BME280;49406;51.044;3.766;2023-07-22T01:41:16;101480.54;;;15.39;100.00
63281;BME280;49406;51.044;3.766;2023-07-22T01:43:51;101481.95;;;15.37;100.00
63281;BME280;49406;51.044;3.766;2023-07-22T01:46:26;101477.89;;;15.43;100.00
63281;BME280;49406;51.044;3.766;2023-07-22T01:49:00;101479.99;;;15.49;100.00
63281;BME280;49406;51.044;3.766;2023-07-22T01:51:35;101475.77;;;15.50;100.00
63281;BME280;49406;51.044;3.766;2023-07-22T01:54:11;101473.30;;;15.48;100.00
63281;BME280;49406;51.044;3.766;2023-07-22T01:56:46;101473.30;;;15.47;100.00
63281;BME280;49406;51.044;3.766;2023-07-22T01:59:20;101474.90;;;15.46;100.00
63281;BME280;49406;51.044;3.766;2023-07-22T02:01:55;101476.64;;;15.51;100.00
63281;BME280;49406;51.044;3.766;2023-07-22T02:04:30;101473.99;;;15.58;100.00
63281;BME280;49406;51.044;3.766;2023-07-22T02:07:04;101470.83;;;15.60;100.00
63281;BME280;49406;51.044;3.766;2023-07-22T02:09:39;101465.88;;;15.57;100.00
63281;BME280;49406;51.044;3.766;2023-07-22T02:12:14;101468.35;;;15.55;100.00
63281;BME280;49406;51.044;3.766;2023-07-22T02:14:48;101467.30;;;15.58;100.00
63281;BME280;49406;51.044;3.766;2023-07-22T02:17:23;101464.47;;;15.68;100.00
63281;BME280;49406;51.044;3.766;2023-07-22T02:19:58;101459.52;;;15.71;100.00
63281;BME280;49406;51.044;3.766;2023-07-22T02:25:08;101452.30;;;15.57;100.00
63281;BME280;49406;51.044;3.766;2023-07-22T02:27:43;101451.44;;;15.53;100.00
63281;BME280;49406;51.044;3.766;2023-07-22T02:30:19;101455.67;;;15.44;100.00
63281;BME280;49406;51.044;3.766;2023-07-22T02:32:54;101451.47;;;15.37;100.00
63281;BME280;49406;51.044;3.766;2023-07-22T02:35:29;101450.42;;;15.27;100.00
63281;BME280;49406;51.044;3.766;2023-07-22T02:38:03;101443.92;;;15.18;100.00
63281;BME280;49406;51.044;3.766;2023-07-22T02:40:39;101442.17;;;15.14;100.00
63281;BME280;49406;51.044;3.766;2023-07-22T02:43:13;101437.59;;;15.14;100.00
63281;BME280;49406;51.044;3.766;2023-07-22T02:45:48;101443.92;;;15.09;100.00
63281;BME280;49406;51.044;3.766;2023-07-22T02:48:23;101439.54;;;15.03;100.00
63281;BME280;49406;51.044;3.766;2023-07-22T02:51:03;101438.48;;;14.97;100.00
63281;BME280;49406;51.044;3.766;2023-07-22T02:53:38;101433.90;;;14.88;100.00
63281;BME280;49406;51.044;3.766;2023-07-22T02:56:14;101435.50;;;14.81;100.00
63281;BME280;49406;51.044;3.766;2023-07-22T02:58:47;101435.65;;;14.74;100.00
63281;BME280;49406;51.044;3.766;2023-07-22T03:01:22;101434.78;;;14.75;100.00
63281;BME280;49406;51.044;3.766;2023-07-22T03:03:57;101440.77;;;14.77;100.00
63281;BME280;49406;51.044;3.766;2023-07-22T03:06:32;101447.27;;;14.74;100.00
63281;BME280;49406;51.044;3.766;2023-07-22T03:09:07;101445.69;;;14.71;100.00
63281;BME280;49406;51.044;3.766;2023-07-22T03:11:41;101443.23;;;14.69;100.00
63281;BME280;49406;51.044;3.766;2023-07-22T03:14:16;101449.04;;;14.67;100.00
63281;BME280;49406;51.044;3.766;2023-07-22T03:16:50;101450.79;;;14.62;100.00
63281;BME280;49406;51.044;3.766;2023-07-22T03:19:26;101451.12;;;14.59;100.00
63281;BME280;49406;51.044;3.766;2023-07-22T03:22:01;101449.20;;;14.55;100.00
63281;BME280;49406;51.044;3.766;2023-07-22T03:24:36;101455.17;;;14.54;100.00
63281;BME280;49406;51.044;3.766;2023-07-22T03:27:11;101455.73;;;14.61;100.00
63281;BME280;49406;51.044;3.766;2023-07-22T03:29:46;101454.84;;;14.63;100.00
63281;BME280;49406;51.044;3.766;2023-07-22T03:32:20;101452.01;;;14.59;100.00
63281;BME280;49406;51.044;3.766;2023-07-22T03:34:55;101456.58;;;14.57;100.00
63281;BME280;49406;51.044;3.766;2023-07-22T03:37:30;101460.98;;;14.52;100.00
63281;BME280;49406;51.044;3.766;2023-07-22T03:40:06;101461.13;;;14.45;100.00
63281;BME280;49406;51.044;3.766;2023-07-22T03:42:44;101463.55;;;14.40;100.00
63281;BME280;49406;51.044;3.766;2023-07-22T03:45:20;101462.31;;;14.36;100.00
63281;BME280;49406;51.044;3.766;2023-07-22T03:47:59;101465.31;;;14.33;100.00
63281;BME280;49406;51.044;3.766;2023-07-22T03:50:34;101459.67;;;14.37;100.00
63281;BME280;49406;51.044;3.766;2023-07-22T03:53:08;101460.03;;;14.37;100.00
63281;BME280;49406;51.044;3.766;2023-07-22T03:55:43;101461.13;;;14.45;100.00
63281;BME280;49406;51.044;3.766;2023-07-22T03:58:17;101463.37;;;14.36;100.00
63281;BME280;49406;51.044;3.766;2023-07-22T04:00:52;101466.19;;;14.31;100.00
63281;BME280;49406;51.044;3.766;2023-07-22T04:03:27;101464.04;;;14.24;100.00
63281;BME280;49406;51.044;3.766;2023-07-22T04:06:01;101466.48;;;14.19;100.00
63281;BME280;49406;51.044;3.766;2023-07-22T04:08:36;101461.21;;;14.19;100.00
63281;BME280;49406;51.044;3.766;2023-07-22T04:11:10;101467.76;;;14.28;100.00
63281;BME280;49406;51.044;3.766;2023-07-22T04:13:47;101465.65;;;14.29;100.00
63281;BME280;49406;51.044;3.766;2023-07-22T04:16:22;101463.70;;;14.28;100.00
63281;BME280;49406;51.044;3.766;2023-07-22T04:18:56;101466.85;;;14.26;100.00
63281;BME280;49406;51.044;3.766;2023-07-22T04:21:31;101464.02;;;14.25;100.00
63281;BME280;49406;51.044;3.766;2023-07-22T04:24:04;101464.75;;;14.28;100.00
63281;BME280;49406;51.044;3.766;2023-07-22T04:26:40;101464.77;;;14.38;100.00
63281;BME280;49406;51.044;3.766;2023-07-22T04:29:14;101463.55;;;14.41;100.00
63281;BME280;49406;51.044;3.766;2023-07-22T04:31:49;101465.19;;;14.45;100.00
63281;BME280;49406;51.044;3.766;2023-07-22T04:34:24;101464.97;;;14.43;100.00
63281;BME280;49406;51.044;3.766;2023-07-22T04:36:59;101462.15;;;14.42;100.00
63281;BME280;49406;51.044;3.766;2023-07-22T04:39:35;101465.73;;;14.50;100.00
63281;BME280;49406;51.044;3.766;2023-07-22T04:42:09;101466.44;;;14.52;100.00
63281;BME280;49406;51.044;3.766;2023-07-22T04:44:44;101463.80;;;14.54;100.00
63281;BME280;49406;51.044;3.766;2023-07-22T04:47:18;101462.56;;;14.54;100.00
63281;BME280;49406;51.044;3.766;2023-07-22T04:49:53;101469.60;;;14.54;100.00
63281;BME280;49406;51.044;3.766;2023-07-22T04:52:28;101471.70;;;14.53;100.00
63281;BME280;49406;51.044;3.766;2023-07-22T04:55:03;101476.29;;;14.58;100.00
63281;BME280;49406;51.044;3.766;2023-07-22T04:57:42;101469.81;;;14.68;100.00
63281;BME280;49406;51.044;3.766;2023-07-22T05:00:18;101467.52;;;14.70;100.00
63281;BME280;49406;51.044;3.766;2023-07-22T05:02:53;101469.27;;;14.75;100.00
63281;BME280;49406;51.044;3.766;2023-07-22T05:05:27;101468.23;;;14.78;100.00
63281;BME280;49406;51.044;3.766;2023-07-22T05:08:02;101466.48;;;14.80;100.00
63281;BME280;49406;51.044;3.766;2023-07-22T05:10:39;101468.06;;;14.83;100.00
63281;BME280;49406;51.044;3.766;2023-07-22T05:13:13;101465.42;;;15.05;100.00
63281;BME280;49406;51.044;3.766;2023-07-22T05:15:49;101469.64;;;15.21;100.00
63281;BME280;49406;51.044;3.766;2023-07-22T05:18:24;101468.58;;;15.20;100.00
63281;BME280;49406;51.044;3.766;2023-07-22T05:20:59;101470.86;;;15.29;100.00
63281;BME280;49406;51.044;3.766;2023-07-22T05:23:33;101470.67;;;15.37;100.00
63281;BME280;49406;51.044;3.766;2023-07-22T05:26:08;101472.60;;;15.42;100.00
63281;BME280;49406;51.044;3.766;2023-07-22T05:28:42;101472.23;;;15.50;100.00
63281;BME280;49406;51.044;3.766;2023-07-22T05:31:17;101479.61;;;15.68;100.00
63281;BME280;49406;51.044;3.766;2023-07-22T05:33:52;101483.09;;;15.91;100.00
63281;BME280;49406;51.044;3.766;2023-07-22T05:36:26;101482.27;;;16.14;100.00
63281;BME280;49406;51.044;3.766;2023-07-22T05:39:01;101485.21;;;16.26;100.00
63281;BME280;49406;51.044;3.766;2023-07-22T05:41:35;101477.28;;;16.31;100.00
63281;BME280;49406;51.044;3.766;2023-07-22T05:44:10;101479.91;;;16.32;100.00
63281;BME280;49406;51.044;3.766;2023-07-22T05:46:45;101479.13;;;16.44;100.00
63281;BME280;49406;51.044;3.766;2023-07-22T05:49:20;101474.98;;;16.57;100.00
63281;BME280;49406;51.044;3.766;2023-07-22T05:51:54;101473.72;;;16.67;100.00
63281;BME280;49406;51.044;3.766;2023-07-22T05:54:29;101471.73;;;16.74;100.00
63281;BME280;49406;51.044;3.766;2023-07-22T05:57:04;101470.59;;;16.84;100.00
63281;BME280;49406;51.044;3.766;2023-07-22T05:59:39;101465.52;;;16.99;100.00
63281;BME280;49406;51.044;3.766;2023-07-22T06:02:14;101467.01;;;17.12;100.00
63281;BME280;49406;51.044;3.766;2023-07-22T06:04:49;101462.85;;;17.22;100.00
63281;BME280;49406;51.044;3.766;2023-07-22T06:07:23;101463.66;;;17.29;100.00
63281;BME280;49406;51.044;3.766;2023-07-22T06:09:58;101465.29;;;17.44;100.00
63281;BME280;49406;51.044;3.766;2023-07-22T06:12:33;101463.69;;;17.61;100.00
63281;BME280;49406;51.044;3.766;2023-07-22T06:15:09;101463.41;;;17.72;100.00
63281;BME280;49406;51.044;3.766;2023-07-22T06:17:43;101461.36;;;17.82;100.00
63281;BME280;49406;51.044;3.766;2023-07-22T06:20:18;101460.06;;;17.88;100.00
63281;BME280;49406;51.044;3.766;2023-07-22T06:22:52;101458.08;;;17.90;100.00
63281;BME280;49406;51.044;3.766;2023-07-22T06:25:27;101464.30;;;17.88;100.00
63281;BME280;49406;51.044;3.766;2023-07-22T06:28:02;101464.77;;;17.80;100.00
63281;BME280;49406;51.044;3.766;2023-07-22T06:30:37;101461.17;;;17.66;100.00
63281;BME280;49406;51.044;3.766;2023-07-22T06:33:12;101467.41;;;17.60;100.00
63281;BME280;49406;51.044;3.766;2023-07-22T06:35:46;101463.52;;;17.61;100.00
63281;BME280;49406;51.044;3.766;2023-07-22T06:38:21;101466.61;;;17.71;100.00
63281;BME280;49406;51.044;3.766;2023-07-22T06:40:56;101470.46;;;17.90;100.00
63281;BME280;49406;51.044;3.766;2023-07-22T06:43:31;101465.20;;;18.02;100.00
63281;BME280;49406;51.044;3.766;2023-07-22T06:46:06;101470.86;;;18.15;100.00
63281;BME280;49406;51.044;3.766;2023-07-22T06:48:40;101462.50;;;18.44;100.00
63281;BME280;49406;51.044;3.766;2023-07-22T06:51:15;101458.89;;;18.72;100.00
63281;BME280;49406;51.044;3.766;2023-07-22T06:53:50;101458.52;;;19.07;99.38
63281;BME280;49406;51.044;3.766;2023-07-22T06:56:24;101456.01;;;19.39;97.48
63281;BME280;49406;51.044;3.766;2023-07-22T06:59:00;101459.25;;;19.66;95.93
63281;BME280;49406;51.044;3.766;2023-07-22T07:01:34;101463.52;;;19.82;95.49
63281;BME280;49406;51.044;3.766;2023-07-22T07:04:09;101458.19;;;19.83;94.04
63281;BME280;49406;51.044;3.766;2023-07-22T07:06:44;101457.49;;;19.82;93.71
63281;BME280;49406;51.044;3.766;2023-07-22T07:09:19;101455.52;;;19.84;94.29
63281;BME280;49406;51.044;3.766;2023-07-22T07:11:54;101457.31;;;19.83;93.08
63281;BME280;49406;51.044;3.766;2023-07-22T07:14:30;101455.41;;;19.71;93.45
63281;BME280;49406;51.044;3.766;2023-07-22T07:17:05;101451.67;;;19.62;94.00
63281;BME280;49406;51.044;3.766;2023-07-22T07:19:39;101446.61;;;19.59;93.88
63281;BME280;49406;51.044;3.766;2023-07-22T07:22:14;101449.57;;;19.51;93.19
63281;BME280;49406;51.044;3.766;2023-07-22T07:24:47;101453.93;;;19.45;93.96
63281;BME280;49406;51.044;3.766;2023-07-22T07:27:22;101460.86;;;19.55;93.81
63281;BME280;49406;51.044;3.766;2023-07-22T07:29:57;101461.02;;;19.82;93.75
63281;BME280;49406;51.044;3.766;2023-07-22T07:32:31;101458.42;;;19.96;90.92
63281;BME280;49406;51.044;3.766;2023-07-22T07:35:07;101461.15;;;20.03;90.93
63281;BME280;49406;51.044;3.766;2023-07-22T07:37:42;101466.79;;;20.05;90.40
63281;BME280;49406;51.044;3.766;2023-07-22T07:40:16;101467.92;;;19.93;89.75
63281;BME280;49406;51.044;3.766;2023-07-22T07:42:51;101469.38;;;19.83;90.65
63281;BME280;49406;51.044;3.766;2023-07-22T07:45:25;101461.95;;;19.81;90.35
63281;BME280;49406;51.044;3.766;2023-07-22T07:48:00;101463.98;;;19.77;90.89
63281;BME280;49406;51.044;3.766;2023-07-22T07:50:34;101461.04;;;19.83;90.99
63281;BME280;49406;51.044;3.766;2023-07-22T07:53:09;101454.51;;;19.72;90.76
63281;BME280;49406;51.044;3.766;2023-07-22T07:55:44;101458.84;;;19.77;91.25
63281;BME280;49406;51.044;3.766;2023-07-22T07:58:18;101457.63;;;19.93;92.01
63281;BME280;49406;51.044;3.766;2023-07-22T08:00:53;101460.94;;;20.11;90.18
63281;BME280;49406;51.044;3.766;2023-07-22T08:03:27;101457.11;;;20.17;89.91
63281;BME280;49406;51.044;3.766;2023-07-22T08:06:02;101459.27;;;20.32;89.47
63281;BME280;49406;51.044;3.766;2023-07-22T08:08:37;101460.84;;;20.50;87.39
63281;BME280;49406;51.044;3.766;2023-07-22T08:11:13;101463.02;;;20.78;88.12
63281;BME280;49406;51.044;3.766;2023-07-22T08:13:48;101464.88;;;21.25;87.86
63281;BME280;49406;51.044;3.766;2023-07-22T08:16:24;101468.20;;;21.73;86.31
63281;BME280;49406;51.044;3.766;2023-07-22T08:18:59;101471.38;;;21.99;83.88
63281;BME280;49406;51.044;3.766;2023-07-22T08:21:33;101475.15;;;22.11;82.22
63281;BME280;49406;51.044;3.766;2023-07-22T08:24:08;101476.14;;;22.13;80.85
63281;BME280;49406;51.044;3.766;2023-07-22T08:26:43;101479.63;;;22.34;80.92
63281;BME280;49406;51.044;3.766;2023-07-22T08:29:17;101474.00;;;22.49;77.52
63281;BME280;49406;51.044;3.766;2023-07-22T08:31:52;101472.03;;;22.43;77.70
63281;BME280;49406;51.044;3.766;2023-07-22T08:34:26;101472.79;;;22.42;77.84
63281;BME280;49406;51.044;3.766;2023-07-22T08:37:01;101468.73;;;22.46;77.92
63281;BME280;49406;51.044;3.766;2023-07-22T08:39:35;101463.13;;;22.60;76.24
63281;BME280;49406;51.044;3.766;2023-07-22T08:42:13;101457.45;;;22.70;75.66
63281;BME280;49406;51.044;3.766;2023-07-22T08:44:49;101460.92;;;22.73;75.08
63281;BME280;49406;51.044;3.766;2023-07-22T08:47:30;101459.23;;;22.71;75.91
63281;BME280;49406;51.044;3.766;2023-07-22T08:50:08;101453.77;;;23.12;75.85
63281;BME280;49406;51.044;3.766;2023-07-22T08:52:42;101450.23;;;23.27;72.87
63281;BME280;49406;51.044;3.766;2023-07-22T08:55:17;101448.23;;;23.43;72.71
63281;BME280;49406;51.044;3.766;2023-07-22T08:57:53;101447.50;;;23.83;71.52
63281;BME280;49406;51.044;3.766;2023-07-22T09:00:27;101442.02;;;23.86;69.77
63281;BME280;49406;51.044;3.766;2023-07-22T09:03:02;101440.15;;;23.69;68.64
63281;BME280;49406;51.044;3.766;2023-07-22T09:05:38;101441.41;;;23.74;69.37
63281;BME280;49406;51.044;3.766;2023-07-22T09:08:13;101444.00;;;24.05;68.57
63281;BME280;49406;51.044;3.766;2023-07-22T09:10:49;101440.09;;;23.90;67.93
63281;BME280;49406;51.044;3.766;2023-07-22T09:13:24;101439.34;;;23.96;68.31
63281;BME280;49406;51.044;3.766;2023-07-22T09:15:59;101438.59;;;24.34;67.59
63281;BME280;49406;51.044;3.766;2023-07-22T09:18:35;101437.23;;;24.68;65.61
63281;BME280;49406;51.044;3.766;2023-07-22T09:21:10;101437.91;;;24.81;66.24
63281;BME280;49406;51.044;3.766;2023-07-22T09:23:44;101438.95;;;24.82;64.88
63281;BME280;49406;51.044;3.766;2023-07-22T09:26:19;101433.30;;;24.41;63.15
63281;BME280;49406;51.044;3.766;2023-07-22T09:28:55;101437.20;;;23.96;64.88
63281;BME280;49406;51.044;3.766;2023-07-22T09:31:29;101431.95;;;23.54;65.33
63281;BME280;49406;51.044;3.766;2023-07-22T09:34:11;101432.16;;;23.28;65.89
63281;BME280;49406;51.044;3.766;2023-07-22T09:36:57;101433.92;;;23.19;64.89
63281;BME280;49406;51.044;3.766;2023-07-22T09:39:33;101436.62;;;23.33;64.76
63281;BME280;49406;51.044;3.766;2023-07-22T09:42:09;101431.00;;;23.55;63.51
63281;BME280;49406;51.044;3.766;2023-07-22T09:44:48;101431.80;;;23.97;62.70
63281;BME280;49406;51.044;3.766;2023-07-22T09:47:22;101427.84;;;24.66;61.70
63281;BME280;49406;51.044;3.766;2023-07-22T09:49:57;101424.66;;;25.16;59.81
63281;BME280;49406;51.044;3.766;2023-07-22T09:52:31;101420.48;;;25.30;59.33
63281;BME280;49406;51.044;3.766;2023-07-22T09:55:05;101414.73;;;25.23;57.43
63281;BME280;49406;51.044;3.766;2023-07-22T09:57:45;101417.08;;;25.18;57.81
63281;BME280;49406;51.044;3.766;2023-07-22T10:00:20;101420.65;;;25.01;57.90
63281;BME280;49406;51.044;3.766;2023-07-22T10:02:55;101418.03;;;25.16;58.25
63281;BME280;49406;51.044;3.766;2023-07-22T10:05:31;101417.08;;;25.46;56.92
63281;BME280;49406;51.044;3.766;2023-07-22T10:08:08;101418.27;;;25.75;55.67
63281;BME280;49406;51.044;3.766;2023-07-22T10:10:45;101421.13;;;26.11;53.43
63281;BME280;49406;51.044;3.766;2023-07-22T10:13:20;101419.21;;;26.13;51.16
63281;BME280;49406;51.044;3.766;2023-07-22T10:15:55;101416.45;;;26.11;50.95
63281;BME280;49406;51.044;3.766;2023-07-22T10:18:31;101414.60;;;26.16;48.80
63281;BME280;49406;51.044;3.766;2023-07-22T10:21:06;101419.20;;;25.75;48.25
63281;BME280;49406;51.044;3.766;2023-07-22T10:23:41;101412.18;;;25.63;48.97
63281;BME280;49406;51.044;3.766;2023-07-22T10:26:20;101405.84;;;25.41;48.28
63281;BME280;49406;51.044;3.766;2023-07-22T10:28:57;101411.98;;;25.24;49.49
63281;BME280;49406;51.044;3.766;2023-07-22T10:31:33;101404.58;;;25.13;49.01
63281;BME280;49406;51.044;3.766;2023-07-22T10:34:07;101404.88;;;25.31;48.72
63281;BME280;49406;51.044;3.766;2023-07-22T10:36:42;101414.73;;;25.66;48.14
63281;BME280;49406;51.044;3.766;2023-07-22T10:39:27;101410.13;;;26.04;47.42
63281;BME280;49406;51.044;3.766;2023-07-22T10:42:06;101405.69;;;26.30;46.76
63281;BME280;49406;51.044;3.766;2023-07-22T10:44:40;101406.27;;;26.72;45.04
63281;BME280;49406;51.044;3.766;2023-07-22T10:47:32;101414.20;;;27.00;43.52
63281;BME280;49406;51.044;3.766;2023-07-22T10:50:10;101407.71;;;27.18;41.32
63281;BME280;49406;51.044;3.766;2023-07-22T10:52:45;101411.50;;;27.42;40.82
63281;BME280;49406;51.044;3.766;2023-07-22T10:55:21;101402.71;;;27.72;41.27
63281;BME280;49406;51.044;3.766;2023-07-22T10:58:01;101396.39;;;27.56;40.17
63281;BME280;49406;51.044;3.766;2023-07-22T11:00:37;101391.59;;;27.11;41.08
63281;BME280;49406;51.044;3.766;2023-07-22T11:03:14;101382.83;;;27.03;41.53
63281;BME280;49406;51.044;3.766;2023-07-22T11:05:53;101383.44;;;27.29;42.12
63281;BME280;49406;51.044;3.766;2023-07-22T11:08:39;101384.60;;;27.31;40.93
63281;BME280;49406;51.044;3.766;2023-07-22T11:11:14;101379.41;;;27.21;40.12
63281;BME280;49406;51.044;3.766;2023-07-22T11:13:52;101374.45;;;27.33;41.46
63281;BME280;49406;51.044;3.766;2023-07-22T11:16:30;101372.76;;;27.68;40.81
63281;BME280;49406;51.044;3.766;2023-07-22T11:19:04;101374.24;;;28.03;39.75
63281;BME280;49406;51.044;3.766;2023-07-22T11:21:39;101373.64;;;27.98;39.88
63281;BME280;49406;51.044;3.766;2023-07-22T11:24:15;101371.83;;;28.04;39.40
63281;BME280;49406;51.044;3.766;2023-07-22T11:26:50;101368.79;;;28.01;38.89
63281;BME280;49406;51.044;3.766;2023-07-22T11:29:25;101370.95;;;27.61;38.40
63281;BME280;49406;51.044;3.766;2023-07-22T11:32:00;101371.04;;;27.37;39.56
63281;BME280;49406;51.044;3.766;2023-07-22T11:34:35;101364.11;;;27.35;39.61
63281;BME280;49406;51.044;3.766;2023-07-22T11:37:10;101362.25;;;26.92;39.59
63281;BME280;49406;51.044;3.766;2023-07-22T11:39:45;101359.95;;;26.88;40.47
63281;BME280;49406;51.044;3.766;2023-07-22T11:42:19;101355.25;;;27.02;39.98
63281;BME280;49406;51.044;3.766;2023-07-22T11:44:54;101361.41;;;26.90;41.04
63281;BME280;49406;51.044;3.766;2023-07-22T11:47:31;101370.46;;;26.60;41.60
63281;BME280;49406;51.044;3.766;2023-07-22T11:50:07;101369.67;;;25.88;41.44
63281;BME280;49406;51.044;3.766;2023-07-22T11:52:42;101371.55;;;25.31;43.10
63281;BME280;49406;51.044;3.766;2023-07-22T11:55:17;101366.81;;;24.54;44.08
63281;BME280;49406;51.044;3.766;2023-07-22T11:57:56;101372.77;;;23.81;46.12
63281;BME280;49406;51.044;3.766;2023-07-22T12:00:32;101372.98;;;23.27;47.54
63281;BME280;49406;51.044;3.766;2023-07-22T12:03:10;101378.02;;;22.84;50.32
63281;BME280;49406;51.044;3.766;2023-07-22T12:05:44;101380.69;;;22.42;53.51
63281;BME280;49406;51.044;3.766;2023-07-22T12:08:19;101399.23;;;22.07;56.09
63281;BME280;49406;51.044;3.766;2023-07-22T12:10:58;101399.11;;;21.74;58.62
63281;BME280;49406;51.044;3.766;2023-07-22T12:13:38;101398.52;;;21.39;60.48
63281;BME280;49406;51.044;3.766;2023-07-22T12:16:13;101395.59;;;21.15;61.77
63281;BME280;49406;51.044;3.766;2023-07-22T12:18:48;101396.88;;;21.07;62.34
63281;BME280;49406;51.044;3.766;2023-07-22T12:21:22;101397.23;;;21.01;62.80
63281;BME280;49406;51.044;3.766;2023-07-22T12:23:55;101394.98;;;20.84;63.05
63281;BME280;49406;51.044;3.766;2023-07-22T12:26:30;101390.92;;;20.77;63.06
63281;BME280;49406;51.044;3.766;2023-07-22T12:29:03;101391.46;;;20.83;62.25
63281;BME280;49406;51.044;3.766;2023-07-22T12:31:38;101390.62;;;20.95;61.53
63281;BME280;49406;51.044;3.766;2023-07-22T12:34:12;101388.71;;;21.13;60.99
63281;BME280;49406;51.044;3.766;2023-07-22T12:36:47;101386.11;;;21.38;59.11
63281;BME280;49406;51.044;3.766;2023-07-22T12:39:22;101387.27;;;21.59;57.49
63281;BME280;49406;51.044;3.766;2023-07-22T12:41:56;101386.78;;;21.76;56.46
63281;BME280;49406;51.044;3.766;2023-07-22T12:44:31;101383.48;;;21.97;56.20
63281;BME280;49406;51.044;3.766;2023-07-22T12:47:07;101380.90;;;22.18;55.68
63281;BME280;49406;51.044;3.766;2023-07-22T12:49:42;101373.42;;;22.35;55.18
63281;BME280;49406;51.044;3.766;2023-07-22T12:52:16;101374.16;;;22.50;54.65
63281;BME280;49406;51.044;3.766;2023-07-22T12:54:51;101367.95;;;22.66;54.72
63281;BME280;49406;51.044;3.766;2023-07-22T12:57:26;101363.84;;;22.82;53.46
63281;BME280;49406;51.044;3.766;2023-07-22T13:00:00;101362.91;;;23.24;52.97
63281;BME280;49406;51.044;3.766;2023-07-22T13:02:38;101366.02;;;23.76;51.94
63281;BME280;49406;51.044;3.766;2023-07-22T13:05:12;101359.58;;;23.98;50.02
63281;BME280;49406;51.044;3.766;2023-07-22T13:07:47;101361.05;;;24.03;49.52
63281;BME280;49406;51.044;3.766;2023-07-22T13:10:23;101360.55;;;24.10;49.16
63281;BME280;49406;51.044;3.766;2023-07-22T13:12:59;101363.72;;;24.07;50.59
63281;BME280;49406;51.044;3.766;2023-07-22T13:15:33;101360.00;;;24.15;50.92
63281;BME280;49406;51.044;3.766;2023-07-22T13:18:06;101363.23;;;24.19;50.76
63281;BME280;49406;51.044;3.766;2023-07-22T13:20:41;101360.23;;;24.00;50.14
63281;BME280;49406;51.044;3.766;2023-07-22T13:23:16;101361.61;;;23.60;50.46
63281;BME280;49406;51.044;3.766;2023-07-22T13:25:50;101358.33;;;23.27;51.13
63281;BME280;49406;51.044;3.766;2023-07-22T13:28:25;101363.06;;;23.10;51.95